createdAt,value
2023-05-11T00:01:04.966Z,13.82
2023-05-11T00:03:33.278Z,16.88
2023-05-11T00:06:01.892Z,11.90
2023-05-11T00:08:31.461Z,10.73
2023-05-11T00:11:00.824Z,12.85
2023-05-11T00:13:29.002Z,14.30
2023-05-11T00:15:57.233Z,14.55
2023-05-11T00:18:25.234Z,14.77
2023-05-11T00:20:53.272Z,14.52
2023-05-11T00:23:21.298Z,13.02
2023-05-11T00:25:51.740Z,9.85
2023-05-11T00:28:19.714Z,14.07
2023-05-11T00:30:47.878Z,11.40
2023-05-11T00:33:16.008Z,13.18
2023-05-11T00:35:44.050Z,13.30
2023-05-11T00:38:12.117Z,11.93
2023-05-11T00:40:40.131Z,11.40
2023-05-11T00:43:09.785Z,11.70
2023-05-11T00:45:37.986Z,13.85
2023-05-11T00:48:06.313Z,12.38
2023-05-11T00:50:34.456Z,11.07
2023-05-11T00:53:02.468Z,14.65
2023-05-11T00:55:31.478Z,16.23
2023-05-11T00:57:59.603Z,14.80
2023-05-11T01:00:29.183Z,12.38
2023-05-11T01:02:57.579Z,13.20
2023-05-11T01:05:31.466Z,13.07
2023-05-11T01:08:06.504Z,14.27
2023-05-11T01:13:12.116Z,12.20
2023-05-11T01:15:47.520Z,11.60
2023-05-11T01:18:22.388Z,12.18
2023-05-11T01:20:53.221Z,14.05
2023-05-11T01:23:59.685Z,13.25
2023-05-11T01:27:00.721Z,12.75
2023-05-11T01:29:46.247Z,12.98
2023-05-11T01:32:21.082Z,18.33
2023-05-11T01:34:52.692Z,13.27
2023-05-11T01:37:24.168Z,11.95
2023-05-11T01:39:55.676Z,13.07
2023-05-11T01:42:29.980Z,18.52
2023-05-11T01:45:00.828Z,11.52
2023-05-11T01:47:31.731Z,13.15
2023-05-11T01:50:04.239Z,14.20
2023-05-11T01:52:35.187Z,12.82
2023-05-11T01:55:05.193Z,14.15
2023-05-11T01:57:34.459Z,10.98
2023-05-11T02:00:02.666Z,12.98
2023-05-11T02:02:33.621Z,12.60
2023-05-11T02:05:03.261Z,10.82
2023-05-11T02:07:32.057Z,16.50
2023-05-11T02:10:01.755Z,12.02
2023-05-11T02:12:31.262Z,15.40
2023-05-11T02:15:01.212Z,11.10
2023-05-11T02:17:30.468Z,12.43
2023-05-11T02:20:02.766Z,14.95
2023-05-11T02:22:31.766Z,9.75
2023-05-11T02:24:59.791Z,9.98
2023-05-11T02:27:28.045Z,10.50
2023-05-11T02:29:56.161Z,12.00
2023-05-11T02:32:26.312Z,12.48
2023-05-11T02:35:01.989Z,10.55
2023-05-11T02:37:31.646Z,14.30
2023-05-11T02:40:02.398Z,9.23
2023-05-11T02:42:34.117Z,10.00
2023-05-11T02:45:04.721Z,13.25
2023-05-11T02:47:37.731Z,10.73
2023-05-11T02:50:10.760Z,10.13
2023-05-11T02:52:44.453Z,9.45
2023-05-11T02:55:14.866Z,9.55
2023-05-11T02:57:44.030Z,14.02
2023-05-11T03:00:13.195Z,9.25
2023-05-11T03:02:41.418Z,12.05
2023-05-11T03:05:11.110Z,10.68
2023-05-11T03:07:39.382Z,12.13
2023-05-11T03:10:09.351Z,12.63
2023-05-11T03:12:38.048Z,12.20
2023-05-11T03:15:08.012Z,10.32
2023-05-11T03:17:38.077Z,11.25
2023-05-11T03:20:08.445Z,13.32
2023-05-11T03:22:38.639Z,16.95
2023-05-11T03:25:08.654Z,13.25
2023-05-11T03:27:37.507Z,12.90
2023-05-11T03:30:09.655Z,11.65
2023-05-11T03:32:38.143Z,15.23
2023-05-11T03:35:07.471Z,15.45
2023-05-11T03:37:39.302Z,12.63
2023-05-11T03:40:10.766Z,14.60
2023-05-11T03:42:40.528Z,13.13
2023-05-11T03:45:11.188Z,13.23
2023-05-11T03:47:42.156Z,12.07
2023-05-11T03:50:12.249Z,14.10
2023-05-11T03:52:42.170Z,19.00
2023-05-11T03:55:11.318Z,16.63
2023-05-11T03:57:39.753Z,15.50
2023-05-11T04:00:11.398Z,15.05
2023-05-11T04:02:39.409Z,13.98
2023-05-11T04:05:11.689Z,15.90
2023-05-11T04:07:41.741Z,11.60
2023-05-11T04:10:10.383Z,12.07
2023-05-11T04:12:38.602Z,13.15
2023-05-11T04:15:07.256Z,9.85
2023-05-11T04:17:35.357Z,11.50
2023-05-11T04:20:03.853Z,9.82
2023-05-11T04:22:32.015Z,11.07
2023-05-11T04:25:01.435Z,12.98
2023-05-11T04:27:29.373Z,11.73
2023-05-11T04:29:57.304Z,10.70
2023-05-11T04:32:25.442Z,9.65
2023-05-11T04:34:53.417Z,9.80
2023-05-11T04:37:21.402Z,9.57
2023-05-11T04:39:49.648Z,14.30
2023-05-11T04:42:19.180Z,13.77
2023-05-11T04:44:47.172Z,18.65
2023-05-11T04:47:16.500Z,12.77
2023-05-11T04:49:44.420Z,11.45
2023-05-11T04:52:12.416Z,14.77
2023-05-11T04:54:40.524Z,17.23
2023-05-11T04:57:08.457Z,10.90
2023-05-11T04:59:37.985Z,8.95
2023-05-11T05:02:05.968Z,12.55
2023-05-11T05:04:36.274Z,14.13
2023-05-11T05:07:04.612Z,13.00
2023-05-11T05:09:32.675Z,15.02
2023-05-11T05:12:01.674Z,10.77
2023-05-11T05:14:29.723Z,13.70
2023-05-11T05:17:00.853Z,17.17
2023-05-11T05:19:28.936Z,14.13
2023-05-11T05:21:56.948Z,18.65
2023-05-11T05:24:27.383Z,15.68
2023-05-11T05:26:55.425Z,15.77
2023-05-11T05:29:23.410Z,14.00
2023-05-11T05:31:51.514Z,13.45
2023-05-11T05:34:21.117Z,9.60
2023-05-11T05:36:49.078Z,12.45
2023-05-11T05:39:17.183Z,13.10
2023-05-11T05:41:45.166Z,13.10
2023-05-11T05:44:13.184Z,14.73
2023-05-11T05:46:41.336Z,11.05
2023-05-11T05:49:09.396Z,9.85
2023-05-11T05:51:38.769Z,13.02
2023-05-11T05:54:07.026Z,12.85
2023-05-11T05:56:35.245Z,10.68
2023-05-11T05:59:03.245Z,8.98
2023-05-11T06:01:31.441Z,9.77
2023-05-11T06:03:59.480Z,8.07
2023-05-11T06:06:27.493Z,9.10
2023-05-11T06:08:56.796Z,9.93
2023-05-11T06:11:24.704Z,6.25
2023-05-11T06:13:52.702Z,8.45
2023-05-11T06:16:20.599Z,9.05
2023-05-11T06:18:48.602Z,9.45
2023-05-11T06:21:16.555Z,8.63
2023-05-11T06:23:44.496Z,10.73
2023-05-11T06:26:13.812Z,6.88
2023-05-11T06:28:41.784Z,11.55
2023-05-11T06:31:09.903Z,7.22
2023-05-11T06:33:37.875Z,8.82
2023-05-11T06:36:08.771Z,13.30
2023-05-11T06:38:36.665Z,7.35
2023-05-11T06:41:04.675Z,8.30
2023-05-11T06:43:33.972Z,9.48
2023-05-11T06:46:01.922Z,11.32
2023-05-11T06:48:30.461Z,8.38
2023-05-11T06:50:58.566Z,7.20
2023-05-11T06:53:26.486Z,7.18
2023-05-11T06:55:55.935Z,9.30
2023-05-11T06:58:23.911Z,9.60
2023-05-11T07:00:53.253Z,5.82
2023-05-11T07:03:21.147Z,9.30
2023-05-11T07:05:49.019Z,7.82
2023-05-11T07:08:16.942Z,10.43
2023-05-11T07:10:44.794Z,7.57
2023-05-11T07:13:12.705Z,8.38
2023-05-11T07:15:40.553Z,17.08
2023-05-11T07:18:10.009Z,9.40
2023-05-11T07:20:39.957Z,9.38
2023-05-11T07:23:08.062Z,7.43
2023-05-11T07:25:36.294Z,6.55
2023-05-11T07:28:04.597Z,9.10
2023-05-11T07:30:32.672Z,12.23
2023-05-11T07:33:00.830Z,9.95
2023-05-11T07:35:30.308Z,8.32
2023-05-11T07:37:58.369Z,7.43
2023-05-11T07:40:26.383Z,6.30
2023-05-11T07:42:54.476Z,6.15
2023-05-11T07:45:22.587Z,7.65
2023-05-11T07:47:50.751Z,4.93
2023-05-11T07:50:19.184Z,10.23
2023-05-11T07:52:49.398Z,9.93
2023-05-11T07:55:20.102Z,8.77
2023-05-11T07:57:48.460Z,7.38
2023-05-11T08:00:17.514Z,6.22
2023-05-11T08:02:45.967Z,7.85
2023-05-11T08:05:14.079Z,6.57
2023-05-11T08:07:42.359Z,5.55
2023-05-11T08:10:12.203Z,5.38
2023-05-11T08:12:40.509Z,8.20
2023-05-11T08:15:09.649Z,6.15
2023-05-11T08:17:37.693Z,5.15
2023-05-11T08:20:06.630Z,5.95
2023-05-11T08:22:34.798Z,6.55
2023-05-11T08:25:03.826Z,8.82
2023-05-11T08:27:33.185Z,6.15
2023-05-11T08:30:01.282Z,4.18
2023-05-11T08:32:29.509Z,5.35
2023-05-11T08:34:58.131Z,5.45
2023-05-11T08:37:26.232Z,7.60
2023-05-11T08:39:54.096Z,6.00
2023-05-11T08:42:24.985Z,6.07
2023-05-11T08:44:57.340Z,5.63
2023-05-11T08:47:25.621Z,4.40
2023-05-11T08:49:54.189Z,7.25
2023-05-11T08:52:22.516Z,4.32
2023-05-11T08:54:50.716Z,6.15
2023-05-11T08:57:19.510Z,4.22
2023-05-11T08:59:47.996Z,4.95
2023-05-11T09:02:19.245Z,6.00
2023-05-11T09:04:49.199Z,5.15
2023-05-11T09:07:18.411Z,4.22
2023-05-11T09:09:47.627Z,2.20
2023-05-11T09:12:17.057Z,2.88
2023-05-11T09:14:46.733Z,3.33
2023-05-11T09:17:14.913Z,7.13
2023-05-11T09:19:59.538Z,3.55
2023-05-11T09:22:30.286Z,4.50
2023-05-11T09:25:04.049Z,3.42
2023-05-11T09:27:32.474Z,3.03
2023-05-11T09:30:12.226Z,3.63
2023-05-11T09:32:50.029Z,4.00
2023-05-11T09:35:27.137Z,2.47
2023-05-11T09:38:00.267Z,2.47
2023-05-11T09:43:02.438Z,2.75
2023-05-11T09:45:37.452Z,2.15
2023-05-11T09:48:05.961Z,12.27
2023-05-11T09:50:36.012Z,3.10
2023-05-11T09:53:04.464Z,1.73
2023-05-11T09:55:32.685Z,4.03
2023-05-11T09:58:01.610Z,3.15
2023-05-11T10:00:29.698Z,3.95
2023-05-11T10:03:01.900Z,3.85
2023-05-11T10:05:31.918Z,4.93
2023-05-11T10:08:02.305Z,1.67
2023-05-11T10:10:32.354Z,2.78
2023-05-11T10:13:02.347Z,2.55
2023-05-11T10:15:33.496Z,1.83
2023-05-11T10:18:01.974Z,2.70
2023-05-11T10:20:30.186Z,2.67
2023-05-11T10:22:58.224Z,1.70
2023-05-11T10:25:27.871Z,3.95
2023-05-11T10:27:56.645Z,3.22
2023-05-11T10:30:25.161Z,1.52
2023-05-11T10:32:54.952Z,2.25
2023-05-11T10:35:23.712Z,3.00
2023-05-11T10:37:51.919Z,2.20
2023-05-11T10:40:20.378Z,1.98
2023-05-11T10:43:20.034Z,2.75
2023-05-11T10:45:57.441Z,1.77
2023-05-11T10:48:58.204Z,2.80
2023-05-11T10:51:48.416Z,4.32
2023-05-11T10:54:46.544Z,3.40
2023-05-11T10:57:26.005Z,2.75
2023-05-11T11:00:30.938Z,3.22
2023-05-11T11:03:11.245Z,2.00
2023-05-11T11:05:39.839Z,2.33
2023-05-11T11:08:09.579Z,2.78
2023-05-11T11:10:38.936Z,2.50
2023-05-11T11:13:08.820Z,3.85
2023-05-11T11:16:12.700Z,1.70
2023-05-11T11:18:44.255Z,2.25
2023-05-11T11:21:15.691Z,4.00
2023-05-11T11:23:53.453Z,2.10
2023-05-11T11:26:48.850Z,2.47
2023-05-11T11:29:16.957Z,2.33
2023-05-11T11:31:45.091Z,2.95
2023-05-11T11:34:39.363Z,2.25
2023-05-11T11:37:10.265Z,3.40
2023-05-11T11:39:55.803Z,3.75
2023-05-11T11:42:42.709Z,3.80
2023-05-11T11:45:32.313Z,4.03
2023-05-11T11:48:08.404Z,5.43
2023-05-11T11:50:38.108Z,2.35
2023-05-11T11:53:06.122Z,4.90
2023-05-11T11:55:47.459Z,3.20
2023-05-11T11:58:48.528Z,2.20
2023-05-11T12:01:17.606Z,7.30
2023-05-11T12:03:47.261Z,3.83
2023-05-11T12:06:17.005Z,2.42
2023-05-11T12:08:44.930Z,2.83
2023-05-11T12:11:17.572Z,2.55
2023-05-11T12:13:46.037Z,4.80
2023-05-11T12:16:15.543Z,5.35
2023-05-11T12:18:52.557Z,3.33
2023-05-11T12:21:23.011Z,4.32
2023-05-11T12:23:54.839Z,2.55
2023-05-11T12:26:23.873Z,2.40
2023-05-11T12:28:52.623Z,5.25
2023-05-11T12:31:21.193Z,3.00
2023-05-11T12:33:50.018Z,2.42
2023-05-11T12:36:19.039Z,1.70
2023-05-11T12:38:49.572Z,4.07
2023-05-11T12:41:22.741Z,3.63
2023-05-11T12:43:51.152Z,4.65
2023-05-11T12:46:20.149Z,4.32
2023-05-11T12:48:48.999Z,2.20
2023-05-11T12:51:45.440Z,3.05
2023-05-11T12:54:26.604Z,2.65
2023-05-11T12:56:54.837Z,2.72
2023-05-11T12:59:31.173Z,2.35
2023-05-11T13:02:14.902Z,3.08
2023-05-11T13:04:44.201Z,3.60
2023-05-11T13:07:13.454Z,4.18
2023-05-11T13:09:43.115Z,3.72
2023-05-11T13:12:14.242Z,6.05
2023-05-11T13:14:42.504Z,4.85
2023-05-11T13:17:10.957Z,5.03
2023-05-11T13:19:39.500Z,5.93
2023-05-11T13:22:08.329Z,4.82
2023-05-11T13:24:36.346Z,4.43
2023-05-11T13:27:06.411Z,5.85
2023-05-11T13:29:34.588Z,6.45
2023-05-11T13:32:02.622Z,6.13
2023-05-11T13:34:30.640Z,5.10
2023-05-11T13:36:58.629Z,4.03
2023-05-11T13:39:26.677Z,4.15
2023-05-11T13:41:55.953Z,4.68
2023-05-11T13:44:25.582Z,5.43
2023-05-11T13:46:56.500Z,4.07
2023-05-11T13:49:24.561Z,4.00
2023-05-11T13:51:52.634Z,4.20
2023-05-11T13:54:21.342Z,5.22
2023-05-11T13:56:49.470Z,4.25
2023-05-11T13:59:17.456Z,5.13
2023-05-11T14:01:46.884Z,5.53
2023-05-11T14:04:15.020Z,4.45
2023-05-11T14:06:43.088Z,3.80
2023-05-11T14:09:11.036Z,5.10
2023-05-11T14:11:39.759Z,5.75
2023-05-11T14:14:07.951Z,3.65
2023-05-11T14:16:36.824Z,3.80
2023-05-11T14:19:06.469Z,7.75
2023-05-11T14:21:34.718Z,4.35
2023-05-11T14:24:11.361Z,6.50
2023-05-11T14:26:39.956Z,3.70
2023-05-11T14:29:08.205Z,3.30
2023-05-11T14:31:41.526Z,3.92
2023-05-11T14:34:10.956Z,8.02
2023-05-11T14:36:38.951Z,4.43
2023-05-11T14:39:06.964Z,3.13
2023-05-11T14:41:35.071Z,4.60
2023-05-11T14:44:03.355Z,5.05
2023-05-11T14:46:31.462Z,5.03
2023-05-11T14:48:59.667Z,4.25
2023-05-11T14:51:29.087Z,4.00
2023-05-11T14:53:57.079Z,4.85
2023-05-11T14:56:25.096Z,3.17
2023-05-11T14:58:53.660Z,4.53
2023-05-11T15:01:21.750Z,3.05
2023-05-11T15:03:49.787Z,3.30
2023-05-11T15:06:21.562Z,7.30
2023-05-11T15:08:51.926Z,2.25
2023-05-11T15:11:19.974Z,3.78
2023-05-11T15:13:48.635Z,6.60
2023-05-11T15:16:16.734Z,5.47
2023-05-11T15:18:44.873Z,2.38
2023-05-11T15:21:12.853Z,6.15
2023-05-11T15:23:40.895Z,6.05
2023-05-11T15:26:10.496Z,2.78
2023-05-11T15:28:38.476Z,3.00
2023-05-11T15:31:06.479Z,3.47
2023-05-11T15:33:34.499Z,15.35
2023-05-11T15:36:02.747Z,2.90
2023-05-11T15:38:31.162Z,5.75
2023-05-11T15:40:59.188Z,3.33
2023-05-11T15:43:28.523Z,2.20
2023-05-11T15:45:56.602Z,3.95
2023-05-11T15:48:24.657Z,2.53
2023-05-11T15:50:52.750Z,3.35
2023-05-11T15:53:20.794Z,1.80
2023-05-11T15:55:51.058Z,6.25
2023-05-11T15:58:19.364Z,2.75
2023-05-11T16:00:49.516Z,2.10
2023-05-11T16:03:17.753Z,2.17
2023-05-11T16:05:46.429Z,3.78
2023-05-11T16:08:14.637Z,3.70
2023-05-11T16:10:42.713Z,5.10
2023-05-11T16:13:10.796Z,2.92
2023-05-11T16:15:39.062Z,8.55
2023-05-11T16:18:08.505Z,3.10
2023-05-11T16:20:36.661Z,3.45
2023-05-11T16:23:05.319Z,2.92
2023-05-11T16:25:33.273Z,2.50
2023-05-11T16:28:03.331Z,5.35
2023-05-11T16:30:32.591Z,2.47
2023-05-11T16:33:00.852Z,3.22
2023-05-11T16:35:30.843Z,3.58
2023-05-11T16:38:00.743Z,3.90
2023-05-11T16:40:28.899Z,4.18
2023-05-11T16:42:57.279Z,4.00
2023-05-11T16:45:25.193Z,3.85
2023-05-11T16:47:53.611Z,9.25
2023-05-11T16:50:22.018Z,2.50
2023-05-11T16:52:51.647Z,3.50
2023-05-11T16:55:21.322Z,2.55
2023-05-11T16:57:49.374Z,3.25
2023-05-11T17:00:18.137Z,4.85
2023-05-11T17:02:46.522Z,6.15
2023-05-11T17:05:15.863Z,2.63
2023-05-11T17:07:46.153Z,3.42
2023-05-11T17:10:15.576Z,5.40
2023-05-11T17:12:43.536Z,3.22
2023-05-11T17:15:12.756Z,5.60
2023-05-11T17:17:41.128Z,3.25
2023-05-11T17:20:10.413Z,2.95
2023-05-11T17:22:38.380Z,4.72
2023-05-11T17:25:07.253Z,5.18
2023-05-11T17:27:38.053Z,5.32
2023-05-11T17:30:07.303Z,3.08
2023-05-11T17:32:35.853Z,297.30
2023-05-11T17:35:04.316Z,110.50
2023-05-11T17:37:32.719Z,333.38
2023-05-11T17:40:01.245Z,354.52
2023-05-11T17:42:29.625Z,220.32
2023-05-11T17:44:59.093Z,116.93
2023-05-11T17:47:27.293Z,67.07
2023-05-11T17:49:55.911Z,54.90
2023-05-11T17:52:25.207Z,12.73
2023-05-11T17:54:53.520Z,9.70
2023-05-11T17:57:23.376Z,10.60
2023-05-11T17:59:51.392Z,10.07
2023-05-11T18:02:20.967Z,8.07
2023-05-11T18:04:48.978Z,4.47
2023-05-11T18:07:16.886Z,5.30
2023-05-11T18:09:45.034Z,5.50
2023-05-11T18:12:13.049Z,8.38
2023-05-11T18:14:41.268Z,4.72
2023-05-11T18:17:09.265Z,5.95
2023-05-11T18:19:38.705Z,4.10
2023-05-11T18:22:06.897Z,3.58
2023-05-11T18:24:34.809Z,4.15
2023-05-11T18:27:02.800Z,2.63
2023-05-11T18:29:30.849Z,4.47
2023-05-11T18:31:58.992Z,3.45
2023-05-11T18:34:27.562Z,5.05
2023-05-11T18:36:56.900Z,5.13
2023-05-11T18:39:24.884Z,2.92
2023-05-11T18:41:52.894Z,4.68
2023-05-11T18:44:20.821Z,3.10
2023-05-11T18:46:48.836Z,4.43
2023-05-11T18:49:17.085Z,3.05
2023-05-11T18:51:45.019Z,2.53
2023-05-11T18:54:14.334Z,5.40
2023-05-11T18:56:42.364Z,5.25
2023-05-11T18:59:12.890Z,5.20
2023-05-11T19:04:16.420Z,5.63
2023-05-11T19:06:44.366Z,5.82
2023-05-11T19:09:12.305Z,11.48
2023-05-11T19:11:41.718Z,9.25
2023-05-11T19:14:10.427Z,7.97
2023-05-11T19:16:38.600Z,9.27
2023-05-11T19:19:07.150Z,7.95
2023-05-11T19:21:39.969Z,9.90
2023-05-11T19:24:08.948Z,13.57
2023-05-11T19:26:38.252Z,9.95
2023-05-11T19:29:09.319Z,10.70
2023-05-11T19:31:37.409Z,7.88
2023-05-11T19:34:06.832Z,5.22
2023-05-11T19:36:34.909Z,8.00
2023-05-11T19:39:04.310Z,7.50
2023-05-11T19:41:33.261Z,12.65
2023-05-11T19:44:01.695Z,8.40
2023-05-11T19:46:31.198Z,8.48
2023-05-11T19:48:59.299Z,8.75
2023-05-11T19:51:27.244Z,16.05
2023-05-11T19:53:55.263Z,12.75
2023-05-11T19:56:23.256Z,17.95
2023-05-11T19:58:51.536Z,16.80
2023-05-11T20:01:19.670Z,21.17
2023-05-11T20:03:49.175Z,16.20
2023-05-11T20:06:17.539Z,15.60
2023-05-11T20:08:47.987Z,12.73
2023-05-11T20:11:16.886Z,13.73
2023-05-11T20:13:46.850Z,10.82
2023-05-11T20:16:15.068Z,11.45
2023-05-11T20:18:43.364Z,18.42
2023-05-11T20:21:12.928Z,12.95
2023-05-11T20:23:40.960Z,20.73
2023-05-11T20:26:09.179Z,21.40
2023-05-11T20:28:39.322Z,24.90
2023-05-11T20:31:09.536Z,20.83
2023-05-11T20:36:09.404Z,18.75
2023-05-11T20:38:38.779Z,23.27
2023-05-11T20:41:07.729Z,12.43
2023-05-11T20:43:35.690Z,18.60
2023-05-11T20:46:04.634Z,13.35
2023-05-11T20:48:40.731Z,13.07
2023-05-11T20:51:10.121Z,14.80
2023-05-11T20:53:39.459Z,14.50
2023-05-11T20:56:08.809Z,11.25
2023-05-11T20:58:36.752Z,10.93
2023-05-11T21:01:04.787Z,12.23
2023-05-11T21:03:32.849Z,8.55
2023-05-11T21:06:00.987Z,9.60
2023-05-11T21:08:28.933Z,7.43
2023-05-11T21:10:58.312Z,9.90
2023-05-11T21:13:26.391Z,11.38
2023-05-11T21:15:54.386Z,7.03
2023-05-11T21:18:22.616Z,9.07
2023-05-11T21:20:50.678Z,8.90
2023-05-11T21:23:18.840Z,11.55
2023-05-11T21:25:46.834Z,11.80
2023-05-11T21:28:16.196Z,9.85
2023-05-11T21:30:44.440Z,10.35
2023-05-11T21:33:12.954Z,9.55
2023-05-11T21:35:41.096Z,13.38
2023-05-11T21:38:08.957Z,7.22
2023-05-11T21:40:37.014Z,8.57
2023-05-11T21:43:04.903Z,7.45
2023-05-11T21:45:34.589Z,8.93
2023-05-11T21:48:02.632Z,10.30
2023-05-11T21:50:30.921Z,7.75
2023-05-11T21:52:59.183Z,8.80
2023-05-11T21:55:27.227Z,9.50
2023-05-11T21:57:55.237Z,5.70
2023-05-11T22:00:23.788Z,8.68
2023-05-11T22:02:53.492Z,7.93
2023-05-11T22:05:21.569Z,6.28
2023-05-11T22:07:51.189Z,6.78
2023-05-11T22:10:21.989Z,6.40
2023-05-11T22:12:49.976Z,6.10
2023-05-11T22:15:18.230Z,6.25
2023-05-11T22:17:46.230Z,8.45
2023-05-11T22:20:17.135Z,8.60
2023-05-11T22:22:45.438Z,10.48
2023-05-11T22:25:13.485Z,7.78
2023-05-11T22:27:41.608Z,7.68
2023-05-11T22:30:10.707Z,8.30
2023-05-11T22:32:38.734Z,7.28
2023-05-11T22:35:07.804Z,6.32
2023-05-11T22:37:37.136Z,7.85
2023-05-11T22:40:06.445Z,9.90
2023-05-11T22:42:37.006Z,5.47
2023-05-11T22:45:06.035Z,10.68
2023-05-11T22:47:34.704Z,8.75
2023-05-11T22:50:02.813Z,8.25
2023-05-11T22:52:30.766Z,9.73
2023-05-11T22:55:00.334Z,7.78
2023-05-11T22:57:28.811Z,7.72
2023-05-11T22:59:57.127Z,7.32
2023-05-11T23:02:25.240Z,6.80
2023-05-11T23:04:53.249Z,9.05
2023-05-11T23:07:21.281Z,5.97
2023-05-11T23:09:52.373Z,9.50
2023-05-11T23:12:21.742Z,5.57
2023-05-11T23:14:49.854Z,11.30
2023-05-11T23:17:17.853Z,6.57
2023-05-11T23:19:45.850Z,6.82
2023-05-11T23:22:13.769Z,6.97
2023-05-11T23:24:41.758Z,5.97
2023-05-11T23:27:09.881Z,6.18
2023-05-11T23:29:39.345Z,9.10
2023-05-11T23:32:07.807Z,8.90
2023-05-11T23:34:35.793Z,7.88
2023-05-11T23:37:04.538Z,7.57
2023-05-11T23:39:32.629Z,9.77
2023-05-11T23:42:00.666Z,8.05
2023-05-11T23:44:28.736Z,7.45
2023-05-11T23:46:58.185Z,7.70
2023-05-11T23:49:26.521Z,6.32
2023-05-11T23:51:54.609Z,6.00
2023-05-11T23:54:22.521Z,10.00
2023-05-11T23:56:50.806Z,5.78
2023-05-11T23:59:18.806Z,5.97
